Andersonville, Virginia
Current Conditions -  °F | °C
As of 9:15 AM on Monday 26 Jan 2015 (Local Time) from KFVX Reporting Station
Haze Haze  
Wind Chill: 38°   Ceiling: 300
Heat Index: 41°   Visibility: 4mi
Dew Point: 41°   Wind: 5mph
Humidity: 100%   Direction: 40°NE
Pressure: 29.69"   Gusts: NA
Location:  37.47°N, 78.57°W
Report Text: KFVX 261415Z AUTO 04004KT 4SM BR OVC003 05/05 A2969 RMK AO2 T00520052
Loading
Personal Weather Stations






























Interactive Weather Map New forecast layout! Learn more

10-Day Weather Forecast

Advertisements
Track Severe Weather on mobile